sensor_id;sensor_type;location;lat;lon;timestamp;temperature;humidity
26575;DHT22;67165;50.256;10.978;2023-02-18T00:01:54;9.00;98.00
26575;DHT22;67165;50.256;10.978;2023-02-18T00:04:20;9.00;98.00
26575;DHT22;67165;50.256;10.978;2023-02-18T00:06:46;9.00;98.00
26575;DHT22;67165;50.256;10.978;2023-02-18T00:09:11;9.00;98.00
26575;DHT22;67165;50.256;10.978;2023-02-18T00:11:37;9.00;98.00
26575;DHT22;67165;50.256;10.978;2023-02-18T00:14:10;9.00;98.00
26575;DHT22;67165;50.256;10.978;2023-02-18T00:16:36;9.10;98.00
26575;DHT22;67165;50.256;10.978;2023-02-18T00:19:04;9.00;98.00
26575;DHT22;67165;50.256;10.978;2023-02-18T00:21:32;9.00;98.00
26575;DHT22;67165;50.256;10.978;2023-02-18T00:23:58;8.90;98.00
26575;DHT22;67165;50.256;10.978;2023-02-18T00:26:24;8.90;98.00
26575;DHT22;67165;50.256;10.978;2023-02-18T00:28:50;8.80;98.00
26575;DHT22;67165;50.256;10.978;2023-02-18T00:31:23;8.70;98.00
26575;DHT22;67165;50.256;10.978;2023-02-18T00:33:49;8.80;98.00
26575;DHT22;67165;50.256;10.978;2023-02-18T00:36:16;8.70;98.00
26575;DHT22;67165;50.256;10.978;2023-02-18T00:38:45;8.70;98.00
26575;DHT22;67165;50.256;10.978;2023-02-18T00:41:11;8.60;98.00
26575;DHT22;67165;50.256;10.978;2023-02-18T00:43:36;8.70;98.00
26575;DHT22;67165;50.256;10.978;2023-02-18T00:46:02;8.60;98.00
26575;DHT22;67165;50.256;10.978;2023-02-18T00:48:28;8.60;98.00
26575;DHT22;67165;50.256;10.978;2023-02-18T00:50:53;8.60;98.00
26575;DHT22;67165;50.256;10.978;2023-02-18T00:53:19;8.60;98.00
26575;DHT22;67165;50.256;10.978;2023-02-18T00:55:47;8.50;98.00
26575;DHT22;67165;50.256;10.978;2023-02-18T00:58:13;8.60;98.00
26575;DHT22;67165;50.256;10.978;2023-02-18T01:00:39;8.60;98.00
26575;DHT22;67165;50.256;10.978;2023-02-18T01:03:06;8.50;98.00
26575;DHT22;67165;50.256;10.978;2023-02-18T01:05:35;8.50;98.00
26575;DHT22;67165;50.256;10.978;2023-02-18T01:08:04;8.50;98.00
26575;DHT22;67165;50.256;10.978;2023-02-18T01:10:30;8.60;98.00
26575;DHT22;67165;50.256;10.978;2023-02-18T01:12:56;8.60;98.00
26575;DHT22;67165;50.256;10.978;2023-02-18T01:15:25;8.60;98.00
26575;DHT22;67165;50.256;10.978;2023-02-18T01:17:50;8.60;98.00
26575;DHT22;67165;50.256;10.978;2023-02-18T01:20:17;8.60;98.00
26575;DHT22;67165;50.256;10.978;2023-02-18T01:22:43;8.60;98.00
26575;DHT22;67165;50.256;10.978;2023-02-18T01:25:09;8.60;98.00
26575;DHT22;67165;50.256;10.978;2023-02-18T01:27:35;8.60;98.00
26575;DHT22;67165;50.256;10.978;2023-02-18T01:30:03;8.60;98.00
26575;DHT22;67165;50.256;10.978;2023-02-18T01:32:28;8.60;98.00
26575;DHT22;67165;50.256;10.978;2023-02-18T01:34:54;8.60;98.00
26575;DHT22;67165;50.256;10.978;2023-02-18T01:37:19;8.60;98.00
26575;DHT22;67165;50.256;10.978;2023-02-18T01:39:45;8.70;98.00
26575;DHT22;67165;50.256;10.978;2023-02-18T01:42:22;8.70;98.00
26575;DHT22;67165;50.256;10.978;2023-02-18T01:44:48;8.80;98.00
26575;DHT22;67165;50.256;10.978;2023-02-18T01:47:15;8.80;98.00
26575;DHT22;67165;50.256;10.978;2023-02-18T01:49:42;8.80;98.00
26575;DHT22;67165;50.256;10.978;2023-02-18T01:52:25;8.80;98.00
26575;DHT22;67165;50.256;10.978;2023-02-18T01:54:55;8.80;98.00
26575;DHT22;67165;50.256;10.978;2023-02-18T01:57:31;8.90;98.00
26575;DHT22;67165;50.256;10.978;2023-02-18T02:00:00;9.00;98.00
26575;DHT22;67165;50.256;10.978;2023-02-18T02:02:29;9.00;98.00
26575;DHT22;67165;50.256;10.978;2023-02-18T02:04:56;8.90;98.00
26575;DHT22;67165;50.256;10.978;2023-02-18T02:07:23;8.90;98.00
26575;DHT22;67165;50.256;10.978;2023-02-18T02:09:52;8.90;98.00
26575;DHT22;67165;50.256;10.978;2023-02-18T02:12:43;9.00;98.00
26575;DHT22;67165;50.256;10.978;2023-02-18T02:26:58;9.10;98.00
26575;DHT22;67165;50.256;10.978;2023-02-18T02:38:06;9.10;98.00
26575;DHT22;67165;50.256;10.978;2023-02-18T02:53:44;9.10;98.00
26575;DHT22;67165;50.256;10.978;2023-02-18T02:56:22;9.10;98.00
26575;DHT22;67165;50.256;10.978;2023-02-18T02:58:59;9.20;98.00
26575;DHT22;67165;50.256;10.978;2023-02-18T03:09:39;9.20;98.00
26575;DHT22;67165;50.256;10.978;2023-02-18T03:15:49;9.10;98.00
26575;DHT22;67165;50.256;10.978;2023-02-18T03:21:03;9.20;98.00
26575;DHT22;67165;50.256;10.978;2023-02-18T03:23:38;9.10;98.00
26575;DHT22;67165;50.256;10.978;2023-02-18T03:26:05;9.00;98.00
26575;DHT22;67165;50.256;10.978;2023-02-18T03:28:32;9.10;98.00
26575;DHT22;67165;50.256;10.978;2023-02-18T03:31:04;9.00;98.00
26575;DHT22;67165;50.256;10.978;2023-02-18T03:33:37;9.00;98.00
26575;DHT22;67165;50.256;10.978;2023-02-18T03:36:05;9.10;98.00
26575;DHT22;67165;50.256;10.978;2023-02-18T03:38:39;9.00;98.00
26575;DHT22;67165;50.256;10.978;2023-02-18T03:41:06;9.10;98.00
26575;DHT22;67165;50.256;10.978;2023-02-18T03:43:32;9.10;98.00
26575;DHT22;67165;50.256;10.978;2023-02-18T03:45:58;9.00;98.00
26575;DHT22;67165;50.256;10.978;2023-02-18T03:48:24;9.00;98.00
26575;DHT22;67165;50.256;10.978;2023-02-18T03:50:50;9.00;98.00
26575;DHT22;67165;50.256;10.978;2023-02-18T03:53:15;9.00;98.00
26575;DHT22;67165;50.256;10.978;2023-02-18T03:55:41;9.10;98.00
26575;DHT22;67165;50.256;10.978;2023-02-18T03:58:07;9.10;98.00
26575;DHT22;67165;50.256;10.978;2023-02-18T04:00:32;9.10;98.00
26575;DHT22;67165;50.256;10.978;2023-02-18T04:02:58;9.10;98.00
26575;DHT22;67165;50.256;10.978;2023-02-18T04:05:24;9.10;98.00
26575;DHT22;67165;50.256;10.978;2023-02-18T04:07:49;9.00;98.00
26575;DHT22;67165;50.256;10.978;2023-02-18T04:10:15;9.10;98.00
26575;DHT22;67165;50.256;10.978;2023-02-18T04:12:41;9.00;98.00
26575;DHT22;67165;50.256;10.978;2023-02-18T04:15:07;9.10;98.00
26575;DHT22;67165;50.256;10.978;2023-02-18T04:17:33;9.00;98.00
26575;DHT22;67165;50.256;10.978;2023-02-18T04:19:59;9.00;98.00
26575;DHT22;67165;50.256;10.978;2023-02-18T04:22:24;9.00;98.00
26575;DHT22;67165;50.256;10.978;2023-02-18T04:24:50;9.10;98.00
26575;DHT22;67165;50.256;10.978;2023-02-18T04:27:16;9.10;98.00
26575;DHT22;67165;50.256;10.978;2023-02-18T04:29:41;9.10;98.00
26575;DHT22;67165;50.256;10.978;2023-02-18T04:32:07;9.10;98.00
26575;DHT22;67165;50.256;10.978;2023-02-18T04:34:33;9.20;98.00
26575;DHT22;67165;50.256;10.978;2023-02-18T04:36:58;9.10;98.00
26575;DHT22;67165;50.256;10.978;2023-02-18T04:39:24;9.10;98.00
26575;DHT22;67165;50.256;10.978;2023-02-18T04:41:49;9.10;98.00
26575;DHT22;67165;50.256;10.978;2023-02-18T04:44:15;9.10;98.00
26575;DHT22;67165;50.256;10.978;2023-02-18T04:46:41;9.10;98.00
26575;DHT22;67165;50.256;10.978;2023-02-18T04:49:06;9.10;98.00
26575;DHT22;67165;50.256;10.978;2023-02-18T04:51:32;9.10;98.00
26575;DHT22;67165;50.256;10.978;2023-02-18T04:53:57;9.10;98.00
26575;DHT22;67165;50.256;10.978;2023-02-18T04:56:23;9.10;98.00
26575;DHT22;67165;50.256;10.978;2023-02-18T04:58:49;9.10;98.00
26575;DHT22;67165;50.256;10.978;2023-02-18T05:01:14;9.10;98.00
26575;DHT22;67165;50.256;10.978;2023-02-18T05:03:40;9.10;98.00
26575;DHT22;67165;50.256;10.978;2023-02-18T05:06:06;9.10;98.00
26575;DHT22;67165;50.256;10.978;2023-02-18T05:08:31;9.10;98.00
26575;DHT22;67165;50.256;10.978;2023-02-18T05:10:57;9.10;98.00
26575;DHT22;67165;50.256;10.978;2023-02-18T05:13:23;9.10;98.00
26575;DHT22;67165;50.256;10.978;2023-02-18T05:15:48;9.10;98.00
26575;DHT22;67165;50.256;10.978;2023-02-18T05:18:14;9.20;98.00
26575;DHT22;67165;50.256;10.978;2023-02-18T05:20:40;9.20;98.00
26575;DHT22;67165;50.256;10.978;2023-02-18T05:23:05;9.20;98.00
26575;DHT22;67165;50.256;10.978;2023-02-18T05:25:31;9.10;98.00
26575;DHT22;67165;50.256;10.978;2023-02-18T05:27:57;9.10;98.00
26575;DHT22;67165;50.256;10.978;2023-02-18T05:30:22;9.10;98.00
26575;DHT22;67165;50.256;10.978;2023-02-18T05:32:48;9.10;98.00
26575;DHT22;67165;50.256;10.978;2023-02-18T05:35:13;9.10;98.00
26575;DHT22;67165;50.256;10.978;2023-02-18T05:37:39;9.10;98.00
26575;DHT22;67165;50.256;10.978;2023-02-18T05:40:05;9.10;98.00
26575;DHT22;67165;50.256;10.978;2023-02-18T05:42:31;9.10;98.00
26575;DHT22;67165;50.256;10.978;2023-02-18T05:44:57;9.20;98.00
26575;DHT22;67165;50.256;10.978;2023-02-18T05:47:23;9.20;98.00
26575;DHT22;67165;50.256;10.978;2023-02-18T05:49:49;9.20;98.00
26575;DHT22;67165;50.256;10.978;2023-02-18T05:52:15;9.20;98.00
26575;DHT22;67165;50.256;10.978;2023-02-18T05:54:41;9.20;98.00
26575;DHT22;67165;50.256;10.978;2023-02-18T05:57:07;9.20;98.00
26575;DHT22;67165;50.256;10.978;2023-02-18T05:59:33;9.20;98.00
26575;DHT22;67165;50.256;10.978;2023-02-18T06:01:59;9.20;98.00
26575;DHT22;67165;50.256;10.978;2023-02-18T06:04:25;9.20;98.00
26575;DHT22;67165;50.256;10.978;2023-02-18T06:06:51;9.20;98.00
26575;DHT22;67165;50.256;10.978;2023-02-18T06:09:16;9.20;98.00
26575;DHT22;67165;50.256;10.978;2023-02-18T06:11:42;9.20;98.00
26575;DHT22;67165;50.256;10.978;2023-02-18T06:14:08;9.20;98.00
26575;DHT22;67165;50.256;10.978;2023-02-18T06:16:34;9.30;98.00
26575;DHT22;67165;50.256;10.978;2023-02-18T06:18:59;9.30;98.00
26575;DHT22;67165;50.256;10.978;2023-02-18T06:21:25;9.20;98.00
26575;DHT22;67165;50.256;10.978;2023-02-18T06:23:51;9.20;98.00
26575;DHT22;67165;50.256;10.978;2023-02-18T06:26:17;9.20;98.00
26575;DHT22;67165;50.256;10.978;2023-02-18T06:28:42;9.30;98.00
26575;DHT22;67165;50.256;10.978;2023-02-18T06:31:08;9.20;98.00
26575;DHT22;67165;50.256;10.978;2023-02-18T06:33:33;9.20;98.00
26575;DHT22;67165;50.256;10.978;2023-02-18T06:36:02;9.30;98.00
26575;DHT22;67165;50.256;10.978;2023-02-18T06:38:31;9.40;98.00
26575;DHT22;67165;50.256;10.978;2023-02-18T06:40:56;9.30;98.00
26575;DHT22;67165;50.256;10.978;2023-02-18T06:43:22;9.30;98.00
26575;DHT22;67165;50.256;10.978;2023-02-18T06:45:48;9.30;98.00
26575;DHT22;67165;50.256;10.978;2023-02-18T06:48:13;9.30;98.00
26575;DHT22;67165;50.256;10.978;2023-02-18T06:50:40;9.30;98.00
26575;DHT22;67165;50.256;10.978;2023-02-18T06:53:06;9.30;98.00
26575;DHT22;67165;50.256;10.978;2023-02-18T06:55:31;9.30;98.00
26575;DHT22;67165;50.256;10.978;2023-02-18T06:57:57;9.30;98.00
26575;DHT22;67165;50.256;10.978;2023-02-18T07:00:23;9.30;98.00
26575;DHT22;67165;50.256;10.978;2023-02-18T07:02:49;9.30;98.00
26575;DHT22;67165;50.256;10.978;2023-02-18T07:05:14;9.30;98.00
26575;DHT22;67165;50.256;10.978;2023-02-18T07:07:40;9.40;98.00
26575;DHT22;67165;50.256;10.978;2023-02-18T07:10:06;9.40;98.00
26575;DHT22;67165;50.256;10.978;2023-02-18T07:12:32;9.40;98.00
26575;DHT22;67165;50.256;10.978;2023-02-18T07:14:58;9.40;98.00
26575;DHT22;67165;50.256;10.978;2023-02-18T07:17:24;9.40;98.00
26575;DHT22;67165;50.256;10.978;2023-02-18T07:19:50;9.40;98.00
26575;DHT22;67165;50.256;10.978;2023-02-18T07:22:15;9.40;98.00
26575;DHT22;67165;50.256;10.978;2023-02-18T07:24:41;9.40;98.00
26575;DHT22;67165;50.256;10.978;2023-02-18T07:27:07;9.40;98.00
26575;DHT22;67165;50.256;10.978;2023-02-18T07:29:33;9.40;98.00
26575;DHT22;67165;50.256;10.978;2023-02-18T07:31:58;9.40;98.00
26575;DHT22;67165;50.256;10.978;2023-02-18T07:34:24;9.40;98.00
26575;DHT22;67165;50.256;10.978;2023-02-18T07:36:50;9.40;98.00
26575;DHT22;67165;50.256;10.978;2023-02-18T07:39:15;9.40;98.00
26575;DHT22;67165;50.256;10.978;2023-02-18T07:41:48;9.50;98.00
26575;DHT22;67165;50.256;10.978;2023-02-18T07:44:13;9.50;98.00
26575;DHT22;67165;50.256;10.978;2023-02-18T07:46:40;9.60;98.00
26575;DHT22;67165;50.256;10.978;2023-02-18T07:49:06;9.60;98.00
26575;DHT22;67165;50.256;10.978;2023-02-18T07:51:32;9.60;98.00
26575;DHT22;67165;50.256;10.978;2023-02-18T07:53:58;9.60;98.00
26575;DHT22;67165;50.256;10.978;2023-02-18T07:56:24;9.60;98.00
26575;DHT22;67165;50.256;10.978;2023-02-18T07:58:49;9.70;98.00
26575;DHT22;67165;50.256;10.978;2023-02-18T08:01:15;9.70;98.00
26575;DHT22;67165;50.256;10.978;2023-02-18T08:03:41;9.60;98.00
26575;DHT22;67165;50.256;10.978;2023-02-18T08:06:07;9.60;98.00
26575;DHT22;67165;50.256;10.978;2023-02-18T08:08:33;9.70;98.00
26575;DHT22;67165;50.256;10.978;2023-02-18T08:11:00;9.70;98.00
26575;DHT22;67165;50.256;10.978;2023-02-18T08:13:28;9.70;98.00
26575;DHT22;67165;50.256;10.978;2023-02-18T08:15:55;9.70;98.00
26575;DHT22;67165;50.256;10.978;2023-02-18T08:18:22;9.70;98.00
26575;DHT22;67165;50.256;10.978;2023-02-18T08:20:49;9.70;98.00
26575;DHT22;67165;50.256;10.978;2023-02-18T08:23:16;9.70;98.00
26575;DHT22;67165;50.256;10.978;2023-02-18T08:25:49;9.60;98.00
26575;DHT22;67165;50.256;10.978;2023-02-18T08:28:21;9.70;98.00
26575;DHT22;67165;50.256;10.978;2023-02-18T08:30:48;9.70;98.00
26575;DHT22;67165;50.256;10.978;2023-02-18T08:33:15;9.70;98.00
26575;DHT22;67165;50.256;10.978;2023-02-18T08:35:41;9.70;98.00
26575;DHT22;67165;50.256;10.978;2023-02-18T08:38:06;9.70;98.00
26575;DHT22;67165;50.256;10.978;2023-02-18T08:40:32;9.70;98.00
26575;DHT22;67165;50.256;10.978;2023-02-18T08:42:58;9.60;98.00
26575;DHT22;67165;50.256;10.978;2023-02-18T08:45:24;9.60;98.00
26575;DHT22;67165;50.256;10.978;2023-02-18T08:47:49;9.70;98.00
26575;DHT22;67165;50.256;10.978;2023-02-18T08:50:15;9.70;98.00
26575;DHT22;67165;50.256;10.978;2023-02-18T08:52:41;9.70;98.00
26575;DHT22;67165;50.256;10.978;2023-02-18T08:55:06;9.60;98.00
26575;DHT22;67165;50.256;10.978;2023-02-18T08:57:32;9.70;98.00
26575;DHT22;67165;50.256;10.978;2023-02-18T08:59:58;9.70;98.00
26575;DHT22;67165;50.256;10.978;2023-02-18T09:02:23;9.80;98.00
26575;DHT22;67165;50.256;10.978;2023-02-18T09:04:49;9.80;98.00
26575;DHT22;67165;50.256;10.978;2023-02-18T09:07:15;9.90;98.00
26575;DHT22;67165;50.256;10.978;2023-02-18T09:09:40;10.00;98.00
26575;DHT22;67165;50.256;10.978;2023-02-18T09:12:07;10.00;98.00
26575;DHT22;67165;50.256;10.978;2023-02-18T09:14:33;10.00;98.00
26575;DHT22;67165;50.256;10.978;2023-02-18T09:16:59;10.00;98.00
26575;DHT22;67165;50.256;10.978;2023-02-18T09:19:24;10.00;98.00
26575;DHT22;67165;50.256;10.978;2023-02-18T09:21:50;10.00;98.00
26575;DHT22;67165;50.256;10.978;2023-02-18T09:24:19;10.00;98.00
26575;DHT22;67165;50.256;10.978;2023-02-18T09:26:45;10.10;98.00
26575;DHT22;67165;50.256;10.978;2023-02-18T09:29:11;10.20;98.00
26575;DHT22;67165;50.256;10.978;2023-02-18T09:31:36;10.20;98.00
26575;DHT22;67165;50.256;10.978;2023-02-18T09:34:04;10.30;98.00
26575;DHT22;67165;50.256;10.978;2023-02-18T09:36:30;10.40;98.00
26575;DHT22;67165;50.256;10.978;2023-02-18T09:38:56;10.50;98.00
26575;DHT22;67165;50.256;10.978;2023-02-18T09:41:41;10.50;98.00
26575;DHT22;67165;50.256;10.978;2023-02-18T09:47:01;10.70;98.00
26575;DHT22;67165;50.256;10.978;2023-02-18T09:49:37;10.70;98.00
26575;DHT22;67165;50.256;10.978;2023-02-18T09:52:15;10.70;98.00
26575;DHT22;67165;50.256;10.978;2023-02-18T09:54:42;10.80;98.00
26575;DHT22;67165;50.256;10.978;2023-02-18T09:59:57;10.70;98.00
26575;DHT22;67165;50.256;10.978;2023-02-18T10:02:25;10.70;98.00
26575;DHT22;67165;50.256;10.978;2023-02-18T10:04:51;10.80;98.00
26575;DHT22;67165;50.256;10.978;2023-02-18T10:07:30;10.80;98.00
26575;DHT22;67165;50.256;10.978;2023-02-18T10:10:00;10.80;98.00
26575;DHT22;67165;50.256;10.978;2023-02-18T10:12:28;10.70;98.00
26575;DHT22;67165;50.256;10.978;2023-02-18T10:14:57;10.70;98.00
26575;DHT22;67165;50.256;10.978;2023-02-18T10:17:26;10.70;98.00
26575;DHT22;67165;50.256;10.978;2023-02-18T10:19:53;10.70;98.00
26575;DHT22;67165;50.256;10.978;2023-02-18T10:22:22;10.70;98.00
26575;DHT22;67165;50.256;10.978;2023-02-18T10:24:52;10.70;98.00
26575;DHT22;67165;50.256;10.978;2023-02-18T10:27:33;10.70;98.00
26575;DHT22;67165;50.256;10.978;2023-02-18T10:30:22;10.70;98.00
26575;DHT22;67165;50.256;10.978;2023-02-18T10:32:54;10.70;98.00
26575;DHT22;67165;50.256;10.978;2023-02-18T10:40:37;10.60;98.00
26575;DHT22;67165;50.256;10.978;2023-02-18T10:46:30;10.50;98.00
26575;DHT22;67165;50.256;10.978;2023-02-18T10:51:34;10.50;98.00
26575;DHT22;67165;50.256;10.978;2023-02-18T10:54:01;10.50;98.00
26575;DHT22;67165;50.256;10.978;2023-02-18T10:56:50;10.50;98.00
26575;DHT22;67165;50.256;10.978;2023-02-18T10:59:45;10.40;98.00
26575;DHT22;67165;50.256;10.978;2023-02-18T11:02:16;10.50;98.00
26575;DHT22;67165;50.256;10.978;2023-02-18T11:04:44;10.50;98.00
26575;DHT22;67165;50.256;10.978;2023-02-18T11:07:19;10.60;98.00
26575;DHT22;67165;50.256;10.978;2023-02-18T11:09:49;10.60;98.00
26575;DHT22;67165;50.256;10.978;2023-02-18T11:12:21;10.60;98.00
26575;DHT22;67165;50.256;10.978;2023-02-18T11:14:50;10.60;98.00
26575;DHT22;67165;50.256;10.978;2023-02-18T11:17:30;10.60;98.00
26575;DHT22;67165;50.256;10.978;2023-02-18T11:19:58;10.70;98.00
26575;DHT22;67165;50.256;10.978;2023-02-18T11:22:34;10.70;98.00
26575;DHT22;67165;50.256;10.978;2023-02-18T11:25:20;10.70;98.00
26575;DHT22;67165;50.256;10.978;2023-02-18T11:28:29;10.70;98.00
26575;DHT22;67165;50.256;10.978;2023-02-18T11:30:58;10.80;98.00
26575;DHT22;67165;50.256;10.978;2023-02-18T11:33:34;10.80;98.00
26575;DHT22;67165;50.256;10.978;2023-02-18T11:38:58;10.70;98.00
26575;DHT22;67165;50.256;10.978;2023-02-18T11:41:34;10.80;98.00
26575;DHT22;67165;50.256;10.978;2023-02-18T11:44:02;10.80;98.00
26575;DHT22;67165;50.256;10.978;2023-02-18T11:46:29;10.80;98.00
26575;DHT22;67165;50.256;10.978;2023-02-18T11:48:55;10.90;98.00
26575;DHT22;67165;50.256;10.978;2023-02-18T11:51:35;11.00;98.00
26575;DHT22;67165;50.256;10.978;2023-02-18T11:54:25;11.10;98.00
26575;DHT22;67165;50.256;10.978;2023-02-18T11:59:21;11.20;98.00
26575;DHT22;67165;50.256;10.978;2023-02-18T12:02:00;11.20;98.00
26575;DHT22;67165;50.256;10.978;2023-02-18T12:04:32;11.10;98.00
26575;DHT22;67165;50.256;10.978;2023-02-18T12:09:53;11.00;98.00
26575;DHT22;67165;50.256;10.978;2023-02-18T12:12:30;10.90;98.00
26575;DHT22;67165;50.256;10.978;2023-02-18T12:14:58;10.80;98.00
26575;DHT22;67165;50.256;10.978;2023-02-18T12:39:48;10.80;98.00
26575;DHT22;67165;50.256;10.978;2023-02-18T12:50:31;10.80;98.00
26575;DHT22;67165;50.256;10.978;2023-02-18T13:15:18;10.60;98.00
26575;DHT22;67165;50.256;10.978;2023-02-18T13:17:46;10.60;98.00
26575;DHT22;67165;50.256;10.978;2023-02-18T13:22:44;10.60;98.00
26575;DHT22;67165;50.256;10.978;2023-02-18T13:25:12;10.50;98.00
26575;DHT22;67165;50.256;10.978;2023-02-18T13:30:35;10.30;98.00
26575;DHT22;67165;50.256;10.978;2023-02-18T13:33:50;10.20;98.00
26575;DHT22;67165;50.256;10.978;2023-02-18T13:36:44;10.20;98.00
26575;DHT22;67165;50.256;10.978;2023-02-18T13:39:13;10.20;98.00
26575;DHT22;67165;50.256;10.978;2023-02-18T13:41:45;10.10;98.00
26575;DHT22;67165;50.256;10.978;2023-02-18T13:47:02;10.10;98.00
26575;DHT22;67165;50.256;10.978;2023-02-18T13:49:33;10.10;98.00
26575;DHT22;67165;50.256;10.978;2023-02-18T13:52:01;10.10;98.00
26575;DHT22;67165;50.256;10.978;2023-02-18T13:54:44;10.00;98.00
26575;DHT22;67165;50.256;10.978;2023-02-18T13:57:21;10.00;98.00
26575;DHT22;67165;50.256;10.978;2023-02-18T14:00:03;10.00;98.00
26575;DHT22;67165;50.256;10.978;2023-02-18T14:02:35;10.10;98.00
26575;DHT22;67165;50.256;10.978;2023-02-18T14:05:21;10.00;98.00
26575;DHT22;67165;50.256;10.978;2023-02-18T14:07:51;10.10;98.00
26575;DHT22;67165;50.256;10.978;2023-02-18T14:39:48;10.20;98.00
26575;DHT22;67165;50.256;10.978;2023-02-18T14:50:43;10.10;98.00
26575;DHT22;67165;50.256;10.978;2023-02-18T14:53:16;10.10;98.00
26575;DHT22;67165;50.256;10.978;2023-02-18T14:55:45;10.10;98.00
26575;DHT22;67165;50.256;10.978;2023-02-18T15:00:47;10.10;98.00
26575;DHT22;67165;50.256;10.978;2023-02-18T15:03:15;10.10;98.00
26575;DHT22;67165;50.256;10.978;2023-02-18T15:05:43;10.10;98.00
26575;DHT22;67165;50.256;10.978;2023-02-18T15:08:20;10.10;98.00
26575;DHT22;67165;50.256;10.978;2023-02-18T15:10:50;10.10;98.00
26575;DHT22;67165;50.256;10.978;2023-02-18T15:15:47;10.20;98.00
26575;DHT22;67165;50.256;10.978;2023-02-18T15:18:41;10.20;98.00
26575;DHT22;67165;50.256;10.978;2023-02-18T15:21:07;10.20;98.00
26575;DHT22;67165;50.256;10.978;2023-02-18T15:23:35;10.20;98.00
26575;DHT22;67165;50.256;10.978;2023-02-18T15:26:02;10.20;98.00
26575;DHT22;67165;50.256;10.978;2023-02-18T15:28:30;10.20;98.00
26575;DHT22;67165;50.256;10.978;2023-02-18T15:30:58;10.20;98.00
26575;DHT22;67165;50.256;10.978;2023-02-18T15:33:25;10.10;98.00
26575;DHT22;67165;50.256;10.978;2023-02-18T15:35:51;10.20;98.00
26575;DHT22;67165;50.256;10.978;2023-02-18T15:38:18;10.10;98.00
26575;DHT22;67165;50.256;10.978;2023-02-18T15:40:48;10.10;98.00
26575;DHT22;67165;50.256;10.978;2023-02-18T15:43:18;10.10;98.00
26575;DHT22;67165;50.256;10.978;2023-02-18T15:45:46;10.10;98.00
26575;DHT22;67165;50.256;10.978;2023-02-18T15:48:41;10.10;98.00
26575;DHT22;67165;50.256;10.978;2023-02-18T15:51:11;10.10;98.00
26575;DHT22;67165;50.256;10.978;2023-02-18T15:53:39;10.00;98.00
26575;DHT22;67165;50.256;10.978;2023-02-18T15:56:09;10.00;98.00
26575;DHT22;67165;50.256;10.978;2023-02-18T15:58:35;10.10;98.00
26575;DHT22;67165;50.256;10.978;2023-02-18T16:01:03;10.10;98.00
26575;DHT22;67165;50.256;10.978;2023-02-18T16:08:36;10.00;98.00
26575;DHT22;67165;50.256;10.978;2023-02-18T16:11:06;10.00;98.00
26575;DHT22;67165;50.256;10.978;2023-02-18T16:13:33;10.00;98.00
26575;DHT22;67165;50.256;10.978;2023-02-18T16:16:00;10.00;98.00
26575;DHT22;67165;50.256;10.978;2023-02-18T16:18:38;9.90;98.00
26575;DHT22;67165;50.256;10.978;2023-02-18T16:24:00;9.90;98.00
26575;DHT22;67165;50.256;10.978;2023-02-18T16:29:04;10.00;98.00
26575;DHT22;67165;50.256;10.978;2023-02-18T16:31:35;9.90;98.00
26575;DHT22;67165;50.256;10.978;2023-02-18T16:34:00;9.90;98.00
26575;DHT22;67165;50.256;10.978;2023-02-18T16:36:26;9.90;98.00
26575;DHT22;67165;50.256;10.978;2023-02-18T16:38:52;9.90;98.00
26575;DHT22;67165;50.256;10.978;2023-02-18T16:41:17;9.90;98.00
26575;DHT22;67165;50.256;10.978;2023-02-18T16:43:43;9.90;98.00
26575;DHT22;67165;50.256;10.978;2023-02-18T16:48:42;9.90;98.00
26575;DHT22;67165;50.256;10.978;2023-02-18T16:51:17;9.90;98.00
26575;DHT22;67165;50.256;10.978;2023-02-18T16:53:45;9.90;98.00
26575;DHT22;67165;50.256;10.978;2023-02-18T16:56:16;9.90;98.00
26575;DHT22;67165;50.256;10.978;2023-02-18T16:58:42;9.90;98.00
26575;DHT22;67165;50.256;10.978;2023-02-18T17:01:20;9.90;98.00
26575;DHT22;67165;50.256;10.978;2023-02-18T17:03:47;9.80;98.00
26575;DHT22;67165;50.256;10.978;2023-02-18T17:06:14;9.80;98.00
26575;DHT22;67165;50.256;10.978;2023-02-18T17:08:39;9.80;98.00
26575;DHT22;67165;50.256;10.978;2023-02-18T17:11:05;9.80;98.00
26575;DHT22;67165;50.256;10.978;2023-02-18T17:13:31;9.80;98.00
26575;DHT22;67165;50.256;10.978;2023-02-18T17:15:57;9.80;98.00
26575;DHT22;67165;50.256;10.978;2023-02-18T17:18:24;9.80;98.00
26575;DHT22;67165;50.256;10.978;2023-02-18T17:20:51;9.80;98.00
26575;DHT22;67165;50.256;10.978;2023-02-18T17:23:19;9.90;98.00
26575;DHT22;67165;50.256;10.978;2023-02-18T17:25:52;9.80;98.00
26575;DHT22;67165;50.256;10.978;2023-02-18T17:28:18;9.80;98.00
26575;DHT22;67165;50.256;10.978;2023-02-18T17:30:51;9.70;98.00
26575;DHT22;67165;50.256;10.978;2023-02-18T17:33:18;9.70;98.00
26575;DHT22;67165;50.256;10.978;2023-02-18T17:35:44;9.70;98.00
26575;DHT22;67165;50.256;10.978;2023-02-18T17:38:15;9.80;98.00
26575;DHT22;67165;50.256;10.978;2023-02-18T17:40:42;9.80;98.00
26575;DHT22;67165;50.256;10.978;2023-02-18T17:43:15;9.80;98.00
26575;DHT22;67165;50.256;10.978;2023-02-18T17:45:55;9.80;98.00
26575;DHT22;67165;50.256;10.978;2023-02-18T17:48:22;9.80;98.00
26575;DHT22;67165;50.256;10.978;2023-02-18T17:50:48;9.80;98.00
26575;DHT22;67165;50.256;10.978;2023-02-18T17:53:14;9.80;98.00
26575;DHT22;67165;50.256;10.978;2023-02-18T17:55:41;9.80;98.00
26575;DHT22;67165;50.256;10.978;2023-02-18T17:58:07;9.80;98.00
26575;DHT22;67165;50.256;10.978;2023-02-18T18:00:54;9.80;98.00
26575;DHT22;67165;50.256;10.978;2023-02-18T18:03:21;9.80;98.00
26575;DHT22;67165;50.256;10.978;2023-02-18T18:05:48;9.70;98.00
26575;DHT22;67165;50.256;10.978;2023-02-18T18:08:16;9.70;98.00
26575;DHT22;67165;50.256;10.978;2023-02-18T18:10:48;9.70;98.00
26575;DHT22;67165;50.256;10.978;2023-02-18T18:13:25;9.70;98.00
26575;DHT22;67165;50.256;10.978;2023-02-18T18:15:51;9.60;98.00
26575;DHT22;67165;50.256;10.978;2023-02-18T18:18:17;9.60;98.00
26575;DHT22;67165;50.256;10.978;2023-02-18T18:20:46;9.60;98.00
26575;DHT22;67165;50.256;10.978;2023-02-18T18:23:14;9.60;98.00
26575;DHT22;67165;50.256;10.978;2023-02-18T18:25:49;9.60;98.00
26575;DHT22;67165;50.256;10.978;2023-02-18T18:28:15;9.50;98.00
26575;DHT22;67165;50.256;10.978;2023-02-18T18:30:46;9.50;98.00
26575;DHT22;67165;50.256;10.978;2023-02-18T18:33:19;9.40;98.00
26575;DHT22;67165;50.256;10.978;2023-02-18T18:35:46;9.40;98.00
26575;DHT22;67165;50.256;10.978;2023-02-18T18:38:15;9.40;98.00
26575;DHT22;67165;50.256;10.978;2023-02-18T18:40:41;9.40;98.00
26575;DHT22;67165;50.256;10.978;2023-02-18T18:43:09;9.30;98.00
26575;DHT22;67165;50.256;10.978;2023-02-18T18:45:37;9.30;98.00